sensor_id;sensor_type;location;lat;lon;timestamp;P1;durP1;ratioP1;P2;durP2;ratioP2
61806;SDS011;47726;52.766;6.606;2022-11-20T00:00:09;23.65;;;17.38;;
61806;SDS011;47726;52.766;6.606;2022-11-20T00:02:35;24.80;;;17.58;;
61806;SDS011;47726;52.766;6.606;2022-11-20T00:05:00;25.88;;;17.63;;
61806;SDS011;47726;52.766;6.606;2022-11-20T00:07:26;24.55;;;17.65;;
61806;SDS011;47726;52.766;6.606;2022-11-20T00:09:52;25.83;;;17.88;;
61806;SDS011;47726;52.766;6.606;2022-11-20T00:12:17;26.27;;;17.75;;
61806;SDS011;47726;52.766;6.606;2022-11-20T00:14:43;25.52;;;17.50;;
61806;SDS011;47726;52.766;6.606;2022-11-20T00:17:08;23.55;;;16.25;;
61806;SDS011;47726;52.766;6.606;2022-11-20T00:19:34;24.35;;;16.70;;
61806;SDS011;47726;52.766;6.606;2022-11-20T00:22:00;26.75;;;18.10;;
61806;SDS011;47726;52.766;6.606;2022-11-20T00:24:25;22.88;;;16.27;;
61806;SDS011;47726;52.766;6.606;2022-11-20T00:26:51;23.13;;;15.88;;
61806;SDS011;47726;52.766;6.606;2022-11-20T00:29:16;24.15;;;16.52;;
61806;SDS011;47726;52.766;6.606;2022-11-20T00:31:42;22.70;;;15.30;;
61806;SDS011;47726;52.766;6.606;2022-11-20T00:34:08;23.27;;;15.38;;
61806;SDS011;47726;52.766;6.606;2022-11-20T00:36:35;22.05;;;14.40;;
61806;SDS011;47726;52.766;6.606;2022-11-20T00:39:00;22.48;;;14.00;;
61806;SDS011;47726;52.766;6.606;2022-11-20T00:41:27;19.40;;;13.13;;
61806;SDS011;47726;52.766;6.606;2022-11-20T00:43:54;20.20;;;13.93;;
61806;SDS011;47726;52.766;6.606;2022-11-20T00:46:24;19.52;;;13.55;;
61806;SDS011;47726;52.766;6.606;2022-11-20T00:48:51;18.15;;;12.85;;
61806;SDS011;47726;52.766;6.606;2022-11-20T00:51:18;18.50;;;12.80;;
61806;SDS011;47726;52.766;6.606;2022-11-20T00:53:46;17.83;;;12.88;;
61806;SDS011;47726;52.766;6.606;2022-11-20T00:56:13;18.23;;;13.00;;
61806;SDS011;47726;52.766;6.606;2022-11-20T00:58:42;17.58;;;12.73;;
61806;SDS011;47726;52.766;6.606;2022-11-20T01:01:20;19.95;;;12.90;;
61806;SDS011;47726;52.766;6.606;2022-11-20T01:03:49;18.42;;;13.00;;
61806;SDS011;47726;52.766;6.606;2022-11-20T01:06:20;20.63;;;13.35;;
61806;SDS011;47726;52.766;6.606;2022-11-20T01:08:52;17.95;;;12.95;;
61806;SDS011;47726;52.766;6.606;2022-11-20T01:11:21;17.55;;;12.65;;
61806;SDS011;47726;52.766;6.606;2022-11-20T01:13:49;16.92;;;12.25;;
61806;SDS011;47726;52.766;6.606;2022-11-20T01:16:17;18.35;;;12.70;;
61806;SDS011;47726;52.766;6.606;2022-11-20T01:18:49;17.95;;;12.82;;
61806;SDS011;47726;52.766;6.606;2022-11-20T01:21:20;16.55;;;12.15;;
61806;SDS011;47726;52.766;6.606;2022-11-20T01:24:05;16.73;;;12.13;;
61806;SDS011;47726;52.766;6.606;2022-11-20T01:26:34;16.42;;;12.38;;
61806;SDS011;47726;52.766;6.606;2022-11-20T01:29:00;17.40;;;12.55;;
61806;SDS011;47726;52.766;6.606;2022-11-20T01:31:28;18.65;;;12.55;;
61806;SDS011;47726;52.766;6.606;2022-11-20T01:33:57;17.80;;;12.27;;
61806;SDS011;47726;52.766;6.606;2022-11-20T01:36:25;17.65;;;12.38;;
61806;SDS011;47726;52.766;6.606;2022-11-20T01:38:53;18.00;;;12.40;;
61806;SDS011;47726;52.766;6.606;2022-11-20T01:41:21;17.70;;;12.82;;
61806;SDS011;47726;52.766;6.606;2022-11-20T01:44:06;17.15;;;12.35;;
61806;SDS011;47726;52.766;6.606;2022-11-20T01:46:37;19.35;;;12.93;;
61806;SDS011;47726;52.766;6.606;2022-11-20T01:51:45;17.63;;;12.82;;
61806;SDS011;47726;52.766;6.606;2022-11-20T01:54:18;16.80;;;12.35;;
61806;SDS011;47726;52.766;6.606;2022-11-20T01:56:48;19.38;;;12.70;;
61806;SDS011;47726;52.766;6.606;2022-11-20T01:59:17;18.85;;;12.60;;
61806;SDS011;47726;52.766;6.606;2022-11-20T02:01:44;17.98;;;12.27;;
61806;SDS011;47726;52.766;6.606;2022-11-20T02:04:09;18.05;;;12.57;;
61806;SDS011;47726;52.766;6.606;2022-11-20T02:06:40;17.67;;;12.48;;
61806;SDS011;47726;52.766;6.606;2022-11-20T02:09:10;16.10;;;11.65;;
61806;SDS011;47726;52.766;6.606;2022-11-20T02:11:36;18.25;;;13.25;;
61806;SDS011;47726;52.766;6.606;2022-11-20T02:14:02;19.25;;;12.38;;
61806;SDS011;47726;52.766;6.606;2022-11-20T02:16:29;18.25;;;12.98;;
61806;SDS011;47726;52.766;6.606;2022-11-20T02:18:59;17.52;;;12.40;;
61806;SDS011;47726;52.766;6.606;2022-11-20T02:24:16;18.73;;;12.93;;
61806;SDS011;47726;52.766;6.606;2022-11-20T02:26:54;17.20;;;12.27;;
61806;SDS011;47726;52.766;6.606;2022-11-20T02:29:27;16.58;;;12.07;;
61806;SDS011;47726;52.766;6.606;2022-11-20T02:34:52;18.55;;;12.77;;
61806;SDS011;47726;52.766;6.606;2022-11-20T02:37:18;18.52;;;12.95;;
61806;SDS011;47726;52.766;6.606;2022-11-20T02:39:46;17.52;;;12.93;;
61806;SDS011;47726;52.766;6.606;2022-11-20T02:42:14;21.75;;;13.30;;
61806;SDS011;47726;52.766;6.606;2022-11-20T02:44:40;17.02;;;12.60;;
61806;SDS011;47726;52.766;6.606;2022-11-20T02:47:06;17.67;;;12.70;;
61806;SDS011;47726;52.766;6.606;2022-11-20T02:49:32;17.48;;;12.30;;
61806;SDS011;47726;52.766;6.606;2022-11-20T02:51:58;17.83;;;12.50;;
61806;SDS011;47726;52.766;6.606;2022-11-20T02:54:23;19.13;;;12.60;;
61806;SDS011;47726;52.766;6.606;2022-11-20T02:56:49;16.80;;;12.15;;
61806;SDS011;47726;52.766;6.606;2022-11-20T02:59:16;18.65;;;13.00;;
61806;SDS011;47726;52.766;6.606;2022-11-20T03:01:41;17.05;;;12.40;;
61806;SDS011;47726;52.766;6.606;2022-11-20T03:04:07;17.23;;;12.55;;
61806;SDS011;47726;52.766;6.606;2022-11-20T03:06:33;20.35;;;13.13;;
61806;SDS011;47726;52.766;6.606;2022-11-20T03:08:58;16.63;;;12.77;;
61806;SDS011;47726;52.766;6.606;2022-11-20T03:11:27;17.85;;;13.35;;
61806;SDS011;47726;52.766;6.606;2022-11-20T03:13:53;18.67;;;13.50;;
61806;SDS011;47726;52.766;6.606;2022-11-20T03:16:20;20.67;;;13.23;;
61806;SDS011;47726;52.766;6.606;2022-11-20T03:18:46;19.25;;;13.75;;
61806;SDS011;47726;52.766;6.606;2022-11-20T03:21:13;19.92;;;13.68;;
61806;SDS011;47726;52.766;6.606;2022-11-20T03:23:39;18.58;;;13.63;;
61806;SDS011;47726;52.766;6.606;2022-11-20T03:26:09;17.80;;;13.05;;
61806;SDS011;47726;52.766;6.606;2022-11-20T03:28:46;17.95;;;12.95;;
61806;SDS011;47726;52.766;6.606;2022-11-20T03:31:16;19.65;;;14.15;;
61806;SDS011;47726;52.766;6.606;2022-11-20T03:33:43;18.67;;;13.43;;
61806;SDS011;47726;52.766;6.606;2022-11-20T03:36:10;18.98;;;13.57;;
61806;SDS011;47726;52.766;6.606;2022-11-20T03:38:37;18.95;;;12.98;;
61806;SDS011;47726;52.766;6.606;2022-11-20T03:41:07;18.63;;;13.20;;
61806;SDS011;47726;52.766;6.606;2022-11-20T03:43:37;21.42;;;13.10;;
61806;SDS011;47726;52.766;6.606;2022-11-20T03:46:03;18.58;;;13.50;;
61806;SDS011;47726;52.766;6.606;2022-11-20T03:48:29;18.02;;;13.27;;
61806;SDS011;47726;52.766;6.606;2022-11-20T03:51:08;18.38;;;13.23;;
61806;SDS011;47726;52.766;6.606;2022-11-20T03:53:34;18.85;;;13.43;;
61806;SDS011;47726;52.766;6.606;2022-11-20T03:56:00;18.77;;;13.30;;
61806;SDS011;47726;52.766;6.606;2022-11-20T03:58:26;20.05;;;13.57;;
61806;SDS011;47726;52.766;6.606;2022-11-20T04:00:51;19.17;;;12.73;;
61806;SDS011;47726;52.766;6.606;2022-11-20T04:03:17;19.30;;;13.82;;
61806;SDS011;47726;52.766;6.606;2022-11-20T04:05:42;20.55;;;13.75;;
61806;SDS011;47726;52.766;6.606;2022-11-20T04:08:08;20.02;;;14.88;;
61806;SDS011;47726;52.766;6.606;2022-11-20T04:10:34;19.02;;;13.55;;
61806;SDS011;47726;52.766;6.606;2022-11-20T04:13:00;20.33;;;13.95;;
61806;SDS011;47726;52.766;6.606;2022-11-20T04:15:25;18.63;;;13.00;;
61806;SDS011;47726;52.766;6.606;2022-11-20T04:17:51;22.63;;;13.93;;
61806;SDS011;47726;52.766;6.606;2022-11-20T04:20:16;19.58;;;13.57;;
61806;SDS011;47726;52.766;6.606;2022-11-20T04:22:42;18.75;;;13.10;;
61806;SDS011;47726;52.766;6.606;2022-11-20T04:25:08;19.52;;;13.15;;
61806;SDS011;47726;52.766;6.606;2022-11-20T04:27:33;19.98;;;13.05;;
61806;SDS011;47726;52.766;6.606;2022-11-20T04:29:59;18.73;;;12.93;;
61806;SDS011;47726;52.766;6.606;2022-11-20T04:32:25;19.52;;;13.35;;
61806;SDS011;47726;52.766;6.606;2022-11-20T04:34:50;18.35;;;13.57;;
61806;SDS011;47726;52.766;6.606;2022-11-20T04:37:16;17.80;;;12.57;;
61806;SDS011;47726;52.766;6.606;2022-11-20T04:39:41;18.08;;;13.55;;
61806;SDS011;47726;52.766;6.606;2022-11-20T04:42:08;19.02;;;13.63;;
61806;SDS011;47726;52.766;6.606;2022-11-20T04:44:53;18.88;;;13.18;;
61806;SDS011;47726;52.766;6.606;2022-11-20T04:47:19;18.73;;;13.25;;
61806;SDS011;47726;52.766;6.606;2022-11-20T04:49:45;19.88;;;13.52;;
61806;SDS011;47726;52.766;6.606;2022-11-20T04:52:11;17.92;;;13.13;;
61806;SDS011;47726;52.766;6.606;2022-11-20T04:54:36;20.42;;;13.52;;
61806;SDS011;47726;52.766;6.606;2022-11-20T04:57:02;17.88;;;13.00;;
61806;SDS011;47726;52.766;6.606;2022-11-20T04:59:28;19.85;;;14.30;;
61806;SDS011;47726;52.766;6.606;2022-11-20T05:01:53;17.80;;;13.18;;
61806;SDS011;47726;52.766;6.606;2022-11-20T05:04:19;17.05;;;12.82;;
61806;SDS011;47726;52.766;6.606;2022-11-20T05:06:45;18.25;;;13.38;;
61806;SDS011;47726;52.766;6.606;2022-11-20T05:09:11;19.15;;;13.77;;
61806;SDS011;47726;52.766;6.606;2022-11-20T05:11:37;19.80;;;14.13;;
61806;SDS011;47726;52.766;6.606;2022-11-20T05:14:03;17.88;;;13.35;;
61806;SDS011;47726;52.766;6.606;2022-11-20T05:16:28;17.63;;;13.07;;
61806;SDS011;47726;52.766;6.606;2022-11-20T05:18:55;17.70;;;12.98;;
61806;SDS011;47726;52.766;6.606;2022-11-20T05:21:21;17.33;;;12.20;;
61806;SDS011;47726;52.766;6.606;2022-11-20T05:23:47;17.60;;;13.30;;
61806;SDS011;47726;52.766;6.606;2022-11-20T05:26:14;18.50;;;13.18;;
61806;SDS011;47726;52.766;6.606;2022-11-20T05:28:45;18.48;;;13.35;;
61806;SDS011;47726;52.766;6.606;2022-11-20T05:31:12;17.52;;;13.30;;
61806;SDS011;47726;52.766;6.606;2022-11-20T05:33:40;18.73;;;13.35;;
61806;SDS011;47726;52.766;6.606;2022-11-20T05:36:06;17.50;;;13.23;;
61806;SDS011;47726;52.766;6.606;2022-11-20T05:38:32;20.60;;;14.05;;
61806;SDS011;47726;52.766;6.606;2022-11-20T05:45:59;21.00;;;13.20;;
61806;SDS011;47726;52.766;6.606;2022-11-20T05:48:26;19.48;;;13.30;;
61806;SDS011;47726;52.766;6.606;2022-11-20T05:50:52;18.67;;;13.45;;
61806;SDS011;47726;52.766;6.606;2022-11-20T05:53:17;17.15;;;12.40;;
61806;SDS011;47726;52.766;6.606;2022-11-20T05:55:43;19.85;;;12.80;;
61806;SDS011;47726;52.766;6.606;2022-11-20T05:58:08;18.88;;;13.45;;
61806;SDS011;47726;52.766;6.606;2022-11-20T06:00:34;17.85;;;12.85;;
61806;SDS011;47726;52.766;6.606;2022-11-20T06:03:00;16.85;;;12.63;;
61806;SDS011;47726;52.766;6.606;2022-11-20T06:05:26;18.65;;;13.02;;
61806;SDS011;47726;52.766;6.606;2022-11-20T06:07:52;17.80;;;13.65;;
61806;SDS011;47726;52.766;6.606;2022-11-20T06:10:17;18.00;;;13.27;;
61806;SDS011;47726;52.766;6.606;2022-11-20T06:12:43;18.67;;;13.52;;
61806;SDS011;47726;52.766;6.606;2022-11-20T06:15:09;19.42;;;14.15;;
61806;SDS011;47726;52.766;6.606;2022-11-20T06:17:34;19.38;;;13.18;;
61806;SDS011;47726;52.766;6.606;2022-11-20T06:20:00;19.67;;;13.73;;
61806;SDS011;47726;52.766;6.606;2022-11-20T06:22:26;18.83;;;13.40;;
61806;SDS011;47726;52.766;6.606;2022-11-20T06:24:51;17.33;;;13.20;;
61806;SDS011;47726;52.766;6.606;2022-11-20T06:27:17;19.48;;;13.63;;
61806;SDS011;47726;52.766;6.606;2022-11-20T06:29:43;18.75;;;13.98;;
61806;SDS011;47726;52.766;6.606;2022-11-20T06:32:08;22.88;;;13.95;;
61806;SDS011;47726;52.766;6.606;2022-11-20T06:34:34;17.70;;;12.50;;
61806;SDS011;47726;52.766;6.606;2022-11-20T06:36:59;19.05;;;13.15;;
61806;SDS011;47726;52.766;6.606;2022-11-20T06:39:25;19.27;;;13.13;;
61806;SDS011;47726;52.766;6.606;2022-11-20T06:41:51;18.80;;;13.18;;
61806;SDS011;47726;52.766;6.606;2022-11-20T06:44:16;19.83;;;13.43;;
61806;SDS011;47726;52.766;6.606;2022-11-20T06:46:42;18.67;;;13.30;;
61806;SDS011;47726;52.766;6.606;2022-11-20T06:49:07;18.17;;;13.30;;
61806;SDS011;47726;52.766;6.606;2022-11-20T06:51:33;18.98;;;13.43;;
61806;SDS011;47726;52.766;6.606;2022-11-20T06:53:59;20.83;;;14.00;;
61806;SDS011;47726;52.766;6.606;2022-11-20T06:56:25;20.25;;;13.90;;
61806;SDS011;47726;52.766;6.606;2022-11-20T06:58:51;17.77;;;13.15;;
61806;SDS011;47726;52.766;6.606;2022-11-20T07:01:17;17.98;;;13.30;;
61806;SDS011;47726;52.766;6.606;2022-11-20T07:03:43;18.15;;;13.15;;
61806;SDS011;47726;52.766;6.606;2022-11-20T07:06:09;18.58;;;13.63;;
61806;SDS011;47726;52.766;6.606;2022-11-20T07:08:35;19.35;;;12.88;;
61806;SDS011;47726;52.766;6.606;2022-11-20T07:11:02;18.83;;;13.32;;
61806;SDS011;47726;52.766;6.606;2022-11-20T07:13:29;20.20;;;13.50;;
61806;SDS011;47726;52.766;6.606;2022-11-20T07:15:59;18.73;;;13.63;;
61806;SDS011;47726;52.766;6.606;2022-11-20T07:18:26;18.25;;;13.25;;
61806;SDS011;47726;52.766;6.606;2022-11-20T07:20:52;18.77;;;13.65;;
61806;SDS011;47726;52.766;6.606;2022-11-20T07:23:18;19.35;;;13.02;;
61806;SDS011;47726;52.766;6.606;2022-11-20T07:25:43;17.77;;;13.30;;
61806;SDS011;47726;52.766;6.606;2022-11-20T07:28:09;17.42;;;13.77;;
61806;SDS011;47726;52.766;6.606;2022-11-20T07:30:35;18.58;;;13.43;;
61806;SDS011;47726;52.766;6.606;2022-11-20T07:33:01;16.92;;;13.02;;
61806;SDS011;47726;52.766;6.606;2022-11-20T07:35:27;20.42;;;14.07;;
61806;SDS011;47726;52.766;6.606;2022-11-20T07:37:56;15.63;;;12.25;;
61806;SDS011;47726;52.766;6.606;2022-11-20T07:40:21;18.48;;;12.70;;
61806;SDS011;47726;52.766;6.606;2022-11-20T07:42:47;18.63;;;13.43;;
61806;SDS011;47726;52.766;6.606;2022-11-20T07:45:18;17.50;;;13.25;;
61806;SDS011;47726;52.766;6.606;2022-11-20T07:47:44;18.73;;;12.85;;
61806;SDS011;47726;52.766;6.606;2022-11-20T07:50:10;17.02;;;12.65;;
61806;SDS011;47726;52.766;6.606;2022-11-20T07:52:36;17.48;;;12.57;;
61806;SDS011;47726;52.766;6.606;2022-11-20T07:55:02;17.75;;;12.90;;
61806;SDS011;47726;52.766;6.606;2022-11-20T07:57:28;18.27;;;13.23;;
61806;SDS011;47726;52.766;6.606;2022-11-20T07:59:53;17.85;;;13.07;;
61806;SDS011;47726;52.766;6.606;2022-11-20T08:02:19;18.35;;;13.45;;
61806;SDS011;47726;52.766;6.606;2022-11-20T08:04:45;17.70;;;12.43;;
61806;SDS011;47726;52.766;6.606;2022-11-20T08:07:10;18.92;;;14.18;;
61806;SDS011;47726;52.766;6.606;2022-11-20T08:09:36;18.17;;;13.20;;
61806;SDS011;47726;52.766;6.606;2022-11-20T08:12:01;20.25;;;13.57;;
61806;SDS011;47726;52.766;6.606;2022-11-20T08:14:45;17.90;;;13.57;;
61806;SDS011;47726;52.766;6.606;2022-11-20T08:17:11;17.88;;;13.20;;
61806;SDS011;47726;52.766;6.606;2022-11-20T08:19:37;17.17;;;12.45;;
61806;SDS011;47726;52.766;6.606;2022-11-20T08:22:03;19.42;;;13.82;;
61806;SDS011;47726;52.766;6.606;2022-11-20T08:24:28;18.70;;;13.32;;
61806;SDS011;47726;52.766;6.606;2022-11-20T08:26:56;19.27;;;13.57;;
61806;SDS011;47726;52.766;6.606;2022-11-20T08:29:23;20.45;;;14.18;;
61806;SDS011;47726;52.766;6.606;2022-11-20T08:31:49;18.80;;;13.45;;
61806;SDS011;47726;52.766;6.606;2022-11-20T08:34:15;18.40;;;13.63;;
61806;SDS011;47726;52.766;6.606;2022-11-20T08:36:40;18.30;;;13.50;;
61806;SDS011;47726;52.766;6.606;2022-11-20T08:39:06;18.92;;;14.05;;
61806;SDS011;47726;52.766;6.606;2022-11-20T08:41:31;19.08;;;14.15;;
61806;SDS011;47726;52.766;6.606;2022-11-20T08:44:05;17.98;;;13.98;;
61806;SDS011;47726;52.766;6.606;2022-11-20T08:46:33;20.20;;;14.23;;
61806;SDS011;47726;52.766;6.606;2022-11-20T08:49:02;19.33;;;14.50;;
61806;SDS011;47726;52.766;6.606;2022-11-20T08:51:31;20.42;;;14.45;;
61806;SDS011;47726;52.766;6.606;2022-11-20T08:53:57;19.27;;;14.82;;
61806;SDS011;47726;52.766;6.606;2022-11-20T08:56:23;19.35;;;14.15;;
61806;SDS011;47726;52.766;6.606;2022-11-20T08:58:49;21.83;;;15.15;;
61806;SDS011;47726;52.766;6.606;2022-11-20T09:01:19;18.08;;;13.95;;
61806;SDS011;47726;52.766;6.606;2022-11-20T09:03:46;19.45;;;14.05;;
61806;SDS011;47726;52.766;6.606;2022-11-20T09:06:12;20.15;;;14.55;;
61806;SDS011;47726;52.766;6.606;2022-11-20T09:08:38;19.33;;;14.30;;
61806;SDS011;47726;52.766;6.606;2022-11-20T09:11:04;18.98;;;14.60;;
61806;SDS011;47726;52.766;6.606;2022-11-20T09:13:31;20.40;;;14.20;;
61806;SDS011;47726;52.766;6.606;2022-11-20T09:16:02;19.40;;;14.65;;
61806;SDS011;47726;52.766;6.606;2022-11-20T09:18:30;17.38;;;13.73;;
61806;SDS011;47726;52.766;6.606;2022-11-20T09:21:01;18.65;;;14.02;;
61806;SDS011;47726;52.766;6.606;2022-11-20T09:23:33;19.92;;;14.40;;
61806;SDS011;47726;52.766;6.606;2022-11-20T09:26:03;19.90;;;14.43;;
61806;SDS011;47726;52.766;6.606;2022-11-20T09:28:30;19.23;;;14.52;;
61806;SDS011;47726;52.766;6.606;2022-11-20T09:30:57;17.75;;;14.00;;
61806;SDS011;47726;52.766;6.606;2022-11-20T09:33:23;20.10;;;14.57;;
61806;SDS011;47726;52.766;6.606;2022-11-20T09:35:48;18.45;;;13.50;;
61806;SDS011;47726;52.766;6.606;2022-11-20T09:38:14;18.23;;;13.48;;
61806;SDS011;47726;52.766;6.606;2022-11-20T09:40:51;17.90;;;14.25;;
61806;SDS011;47726;52.766;6.606;2022-11-20T09:45:56;16.65;;;12.93;;
61806;SDS011;47726;52.766;6.606;2022-11-20T09:56:22;18.23;;;13.00;;
61806;SDS011;47726;52.766;6.606;2022-11-20T09:58:51;17.75;;;12.75;;
61806;SDS011;47726;52.766;6.606;2022-11-20T10:01:21;20.05;;;13.98;;
61806;SDS011;47726;52.766;6.606;2022-11-20T10:04:04;17.67;;;13.15;;
61806;SDS011;47726;52.766;6.606;2022-11-20T10:07:08;19.85;;;13.98;;
61806;SDS011;47726;52.766;6.606;2022-11-20T10:09:43;18.38;;;12.70;;
61806;SDS011;47726;52.766;6.606;2022-11-20T10:12:23;16.98;;;12.38;;
61806;SDS011;47726;52.766;6.606;2022-11-20T10:15:10;15.55;;;12.15;;
61806;SDS011;47726;52.766;6.606;2022-11-20T10:23:56;17.38;;;12.68;;
61806;SDS011;47726;52.766;6.606;2022-11-20T10:31:42;17.08;;;12.45;;
61806;SDS011;47726;52.766;6.606;2022-11-20T10:36:47;18.05;;;13.65;;
61806;SDS011;47726;52.766;6.606;2022-11-20T10:39:25;16.55;;;13.10;;
61806;SDS011;47726;52.766;6.606;2022-11-20T10:41:55;17.70;;;12.95;;
61806;SDS011;47726;52.766;6.606;2022-11-20T10:44:22;17.90;;;13.73;;
61806;SDS011;47726;52.766;6.606;2022-11-20T10:47:17;17.05;;;13.27;;
61806;SDS011;47726;52.766;6.606;2022-11-20T10:49:45;18.27;;;13.35;;
61806;SDS011;47726;52.766;6.606;2022-11-20T10:54:51;14.90;;;11.25;;
61806;SDS011;47726;52.766;6.606;2022-11-20T10:57:55;13.77;;;10.73;;
61806;SDS011;47726;52.766;6.606;2022-11-20T11:00:35;15.98;;;11.95;;
61806;SDS011;47726;52.766;6.606;2022-11-20T11:03:00;15.75;;;11.90;;
61806;SDS011;47726;52.766;6.606;2022-11-20T11:08:17;14.35;;;11.10;;
61806;SDS011;47726;52.766;6.606;2022-11-20T11:13:23;14.25;;;10.88;;
61806;SDS011;47726;52.766;6.606;2022-11-20T11:15:49;15.00;;;10.73;;
61806;SDS011;47726;52.766;6.606;2022-11-20T11:18:29;15.05;;;11.63;;
61806;SDS011;47726;52.766;6.606;2022-11-20T11:20:57;16.60;;;11.90;;
61806;SDS011;47726;52.766;6.606;2022-11-20T11:26:05;15.98;;;12.35;;
61806;SDS011;47726;52.766;6.606;2022-11-20T11:28:32;16.10;;;12.50;;
61806;SDS011;47726;52.766;6.606;2022-11-20T11:30:58;17.00;;;11.50;;
61806;SDS011;47726;52.766;6.606;2022-11-20T11:35:51;15.93;;;11.82;;
61806;SDS011;47726;52.766;6.606;2022-11-20T11:38:44;15.38;;;11.80;;
61806;SDS011;47726;52.766;6.606;2022-11-20T11:41:11;17.27;;;13.23;;
61806;SDS011;47726;52.766;6.606;2022-11-20T11:43:51;18.73;;;15.02;;
61806;SDS011;47726;52.766;6.606;2022-11-20T11:46:37;21.15;;;16.45;;
61806;SDS011;47726;52.766;6.606;2022-11-20T11:51:39;24.40;;;21.73;;
61806;SDS011;47726;52.766;6.606;2022-11-20T11:54:19;20.63;;;18.15;;
61806;SDS011;47726;52.766;6.606;2022-11-20T11:56:49;20.20;;;16.55;;
61806;SDS011;47726;52.766;6.606;2022-11-20T11:59:33;17.17;;;13.98;;
61806;SDS011;47726;52.766;6.606;2022-11-20T12:02:52;16.20;;;13.80;;
61806;SDS011;47726;52.766;6.606;2022-11-20T12:05:13;15.55;;;12.75;;
61806;SDS011;47726;52.766;6.606;2022-11-20T12:07:42;14.95;;;11.95;;
61806;SDS011;47726;52.766;6.606;2022-11-20T12:10:16;14.90;;;11.65;;
61806;SDS011;47726;52.766;6.606;2022-11-20T12:12:54;14.52;;;11.48;;
61806;SDS011;47726;52.766;6.606;2022-11-20T12:15:28;15.93;;;12.23;;
61806;SDS011;47726;52.766;6.606;2022-11-20T12:17:55;14.80;;;12.30;;
61806;SDS011;47726;52.766;6.606;2022-11-20T12:20:33;14.88;;;11.88;;
61806;SDS011;47726;52.766;6.606;2022-11-20T12:23:07;14.80;;;12.02;;
61806;SDS011;47726;52.766;6.606;2022-11-20T12:25:41;15.35;;;11.70;;
61806;SDS011;47726;52.766;6.606;2022-11-20T12:28:33;17.77;;;13.73;;
61806;SDS011;47726;52.766;6.606;2022-11-20T12:33:52;16.15;;;12.55;;
61806;SDS011;47726;52.766;6.606;2022-11-20T12:36:32;15.73;;;12.02;;
61806;SDS011;47726;52.766;6.606;2022-11-20T12:58:51;14.43;;;11.50;;
61806;SDS011;47726;52.766;6.606;2022-11-20T13:07:03;15.65;;;11.98;;
61806;SDS011;47726;52.766;6.606;2022-11-20T13:17:36;15.02;;;11.98;;
61806;SDS011;47726;52.766;6.606;2022-11-20T13:20:12;16.80;;;11.57;;
61806;SDS011;47726;52.766;6.606;2022-11-20T13:22:45;17.17;;;12.23;;
61806;SDS011;47726;52.766;6.606;2022-11-20T13:27:51;17.17;;;12.18;;
61806;SDS011;47726;52.766;6.606;2022-11-20T13:30:19;15.48;;;12.10;;
61806;SDS011;47726;52.766;6.606;2022-11-20T13:32:57;16.95;;;11.93;;
61806;SDS011;47726;52.766;6.606;2022-11-20T13:38:12;16.75;;;12.20;;
61806;SDS011;47726;52.766;6.606;2022-11-20T13:43:23;16.35;;;12.52;;
61806;SDS011;47726;52.766;6.606;2022-11-20T13:46:07;15.63;;;12.30;;
61806;SDS011;47726;52.766;6.606;2022-11-20T13:48:38;15.98;;;11.80;;
61806;SDS011;47726;52.766;6.606;2022-11-20T13:51:22;14.10;;;11.30;;
61806;SDS011;47726;52.766;6.606;2022-11-20T13:54:19;15.95;;;11.85;;
61806;SDS011;47726;52.766;6.606;2022-11-20T13:57:12;15.07;;;11.82;;
61806;SDS011;47726;52.766;6.606;2022-11-20T14:02:26;15.13;;;12.50;;
61806;SDS011;47726;52.766;6.606;2022-11-20T14:04:56;18.00;;;12.43;;
61806;SDS011;47726;52.766;6.606;2022-11-20T14:07:25;15.85;;;12.63;;
61806;SDS011;47726;52.766;6.606;2022-11-20T14:09:57;17.83;;;13.40;;
61806;SDS011;47726;52.766;6.606;2022-11-20T14:12:27;17.95;;;13.50;;
61806;SDS011;47726;52.766;6.606;2022-11-20T14:17:22;16.77;;;12.38;;
61806;SDS011;47726;52.766;6.606;2022-11-20T14:19:59;17.55;;;13.18;;
61806;SDS011;47726;52.766;6.606;2022-11-20T14:22:29;15.80;;;11.75;;
61806;SDS011;47726;52.766;6.606;2022-11-20T14:25:06;15.63;;;12.43;;
61806;SDS011;47726;52.766;6.606;2022-11-20T14:27:50;16.70;;;11.85;;
61806;SDS011;47726;52.766;6.606;2022-11-20T14:30:19;15.63;;;12.45;;
61806;SDS011;47726;52.766;6.606;2022-11-20T14:32:50;16.23;;;12.00;;
61806;SDS011;47726;52.766;6.606;2022-11-20T14:35:20;15.98;;;12.48;;
61806;SDS011;47726;52.766;6.606;2022-11-20T14:37:51;16.75;;;12.98;;
61806;SDS011;47726;52.766;6.606;2022-11-20T14:40:30;15.60;;;12.80;;
61806;SDS011;47726;52.766;6.606;2022-11-20T14:43:00;17.85;;;12.88;;
61806;SDS011;47726;52.766;6.606;2022-11-20T14:45:25;17.95;;;13.80;;
61806;SDS011;47726;52.766;6.606;2022-11-20T14:47:52;18.85;;;12.90;;
61806;SDS011;47726;52.766;6.606;2022-11-20T14:50:22;16.27;;;13.23;;
61806;SDS011;47726;52.766;6.606;2022-11-20T14:52:50;17.15;;;13.73;;
61806;SDS011;47726;52.766;6.606;2022-11-20T14:58:00;18.30;;;14.10;;
61806;SDS011;47726;52.766;6.606;2022-11-20T15:00:29;19.65;;;14.50;;
61806;SDS011;47726;52.766;6.606;2022-11-20T15:02:56;18.25;;;14.38;;
61806;SDS011;47726;52.766;6.606;2022-11-20T15:05:23;18.55;;;14.57;;
61806;SDS011;47726;52.766;6.606;2022-11-20T15:08:03;18.15;;;13.88;;
61806;SDS011;47726;52.766;6.606;2022-11-20T15:10:31;18.63;;;14.70;;
61806;SDS011;47726;52.766;6.606;2022-11-20T15:13:01;19.65;;;15.30;;
61806;SDS011;47726;52.766;6.606;2022-11-20T15:15:35;20.15;;;15.43;;
61806;SDS011;47726;52.766;6.606;2022-11-20T15:18:10;20.27;;;15.05;;
61806;SDS011;47726;52.766;6.606;2022-11-20T15:20:38;19.13;;;15.57;;
61806;SDS011;47726;52.766;6.606;2022-11-20T15:23:08;19.33;;;14.98;;
61806;SDS011;47726;52.766;6.606;2022-11-20T15:25:40;20.75;;;16.30;;
61806;SDS011;47726;52.766;6.606;2022-11-20T15:28:17;20.63;;;16.13;;
61806;SDS011;47726;52.766;6.606;2022-11-20T15:30:44;21.15;;;16.45;;
61806;SDS011;47726;52.766;6.606;2022-11-20T15:33:10;20.63;;;15.90;;
61806;SDS011;47726;52.766;6.606;2022-11-20T15:35:36;21.90;;;15.63;;
61806;SDS011;47726;52.766;6.606;2022-11-20T15:38:02;21.45;;;16.70;;
61806;SDS011;47726;52.766;6.606;2022-11-20T15:40:27;19.73;;;15.40;;
61806;SDS011;47726;52.766;6.606;2022-11-20T15:42:53;19.90;;;16.40;;
61806;SDS011;47726;52.766;6.606;2022-11-20T15:45:28;19.77;;;15.30;;
61806;SDS011;47726;52.766;6.606;2022-11-20T15:47:58;20.48;;;16.88;;
61806;SDS011;47726;52.766;6.606;2022-11-20T15:50:29;20.85;;;16.30;;
61806;SDS011;47726;52.766;6.606;2022-11-20T15:53:01;22.63;;;16.08;;
61806;SDS011;47726;52.766;6.606;2022-11-20T15:55:27;21.80;;;16.48;;
61806;SDS011;47726;52.766;6.606;2022-11-20T15:57:52;20.20;;;16.30;;
61806;SDS011;47726;52.766;6.606;2022-11-20T16:00:18;22.02;;;16.92;;
61806;SDS011;47726;52.766;6.606;2022-11-20T16:02:44;21.15;;;16.20;;
61806;SDS011;47726;52.766;6.606;2022-11-20T16:05:10;23.70;;;17.23;;
61806;SDS011;47726;52.766;6.606;2022-11-20T16:07:37;24.65;;;17.40;;
61806;SDS011;47726;52.766;6.606;2022-11-20T16:10:03;21.52;;;16.10;;
61806;SDS011;47726;52.766;6.606;2022-11-20T16:12:29;24.13;;;17.08;;
61806;SDS011;47726;52.766;6.606;2022-11-20T16:15:13;20.58;;;16.63;;
61806;SDS011;47726;52.766;6.606;2022-11-20T16:17:58;22.70;;;16.65;;